createdAt,value
2022-08-26T00:00:52.078Z,73.36
2022-08-26T00:01:52.296Z,73.35
2022-08-26T00:02:52.467Z,73.51
2022-08-26T00:03:52.521Z,73.63
2022-08-26T00:04:52.627Z,73.73
2022-08-26T00:05:52.770Z,73.84
2022-08-26T00:06:52.917Z,73.88
2022-08-26T00:07:53.104Z,74.05
2022-08-26T00:08:53.186Z,74.02
2022-08-26T00:09:54.344Z,74.06
2022-08-26T00:10:53.516Z,74.05
2022-08-26T00:11:53.576Z,73.98
2022-08-26T00:12:53.717Z,74.12
2022-08-26T00:13:53.864Z,74.41
2022-08-26T00:14:53.986Z,74.54
2022-08-26T00:15:54.356Z,74.56
2022-08-26T00:16:55.199Z,74.58
2022-08-26T00:17:54.397Z,74.55
2022-08-26T00:18:54.697Z,74.57
2022-08-26T00:19:54.676Z,74.83
2022-08-26T00:20:54.846Z,74.98
2022-08-26T00:21:54.923Z,75.01
2022-08-26T00:22:55.054Z,74.88
2022-08-26T00:23:55.175Z,74.74
2022-08-26T00:24:55.456Z,74.66
2022-08-26T00:25:55.433Z,74.60
2022-08-26T00:26:55.588Z,74.60
2022-08-26T00:27:55.696Z,74.82
2022-08-26T00:28:55.825Z,74.88
2022-08-26T00:29:56.074Z,74.97
2022-08-26T00:30:56.254Z,75.10
2022-08-26T00:31:56.292Z,75.18
2022-08-26T00:32:56.392Z,75.26
2022-08-26T00:33:56.505Z,75.13
2022-08-26T00:34:56.704Z,75.05
2022-08-26T00:35:56.909Z,75.23
2022-08-26T00:36:56.918Z,75.12
2022-08-26T00:37:57.004Z,75.02
2022-08-26T00:38:57.134Z,74.98
2022-08-26T00:39:57.459Z,74.82
2022-08-26T00:40:57.399Z,74.91
2022-08-26T00:41:57.526Z,74.90
2022-08-26T00:42:57.633Z,74.87
2022-08-26T00:43:57.764Z,74.92
2022-08-26T00:44:57.953Z,74.91
2022-08-26T00:45:58.259Z,74.70
2022-08-26T00:46:58.187Z,74.94
2022-08-26T00:47:58.296Z,75.22
2022-08-26T00:48:58.432Z,75.57
2022-08-26T00:49:58.752Z,75.52
2022-08-26T00:50:58.682Z,75.38
2022-08-26T00:51:58.842Z,75.65
2022-08-26T00:52:58.958Z,75.84
2022-08-26T00:53:59.082Z,75.85
2022-08-26T00:54:59.291Z,75.78
2022-08-26T00:55:59.383Z,75.79
2022-08-26T00:56:59.874Z,75.93
2022-08-26T00:57:59.579Z,75.95
2022-08-26T00:58:59.713Z,75.89
2022-08-26T00:59:59.919Z,75.76
2022-08-26T01:00:59.998Z,75.70
2022-08-26T01:02:00.245Z,75.74
2022-08-26T01:03:00.210Z,75.70
2022-08-26T01:04:00.373Z,75.85
2022-08-26T01:05:00.568Z,75.99
2022-08-26T01:06:00.600Z,76.06
2022-08-26T01:07:00.815Z,76.31
2022-08-26T01:08:00.878Z,76.50
2022-08-26T01:09:00.980Z,76.50
2022-08-26T01:10:01.109Z,76.51
2022-08-26T01:11:01.229Z,76.62
2022-08-26T01:12:01.645Z,76.48
2022-08-26T01:13:01.571Z,76.31
2022-08-26T01:14:01.639Z,76.34
2022-08-26T01:15:01.779Z,76.37
2022-08-26T01:16:01.932Z,76.31
2022-08-26T01:17:02.158Z,76.14
2022-08-26T01:18:02.209Z,76.31
2022-08-26T01:19:02.302Z,76.41
2022-08-26T01:20:02.514Z,76.42
2022-08-26T01:21:02.566Z,76.61
2022-08-26T01:22:02.746Z,76.79
2022-08-26T01:23:03.150Z,76.80
2022-08-26T01:24:02.958Z,76.81
2022-08-26T01:25:03.461Z,76.99
2022-08-26T01:26:03.201Z,77.08
2022-08-26T01:27:03.387Z,77.16
2022-08-26T01:28:03.436Z,77.03
2022-08-26T01:29:03.566Z,77.00
2022-08-26T01:30:03.700Z,76.82
2022-08-26T01:31:03.837Z,76.88
2022-08-26T01:32:04.995Z,76.95
2022-08-26T01:33:04.114Z,77.08
2022-08-26T01:34:04.216Z,77.25
2022-08-26T01:35:04.336Z,77.54
2022-08-26T01:36:04.468Z,77.61
2022-08-26T01:37:04.646Z,77.55
2022-08-26T01:38:04.725Z,77.58
2022-08-26T01:39:05.905Z,77.56
2022-08-26T01:40:05.018Z,77.56
2022-08-26T01:41:15.997Z,77.48
2022-08-26T01:42:06.265Z,77.44
2022-08-26T01:43:05.521Z,77.41
2022-08-26T01:44:05.503Z,77.32
2022-08-26T01:45:05.635Z,77.33
2022-08-26T01:46:05.877Z,77.43
2022-08-26T01:47:06.550Z,77.36
2022-08-26T01:48:05.995Z,77.28
2022-08-26T01:49:06.452Z,77.22
2022-08-26T01:50:06.252Z,77.60
2022-08-26T01:51:06.624Z,77.81
2022-08-26T01:52:06.515Z,77.78
2022-08-26T01:53:06.909Z,77.72
2022-08-26T01:54:06.768Z,77.59
2022-08-26T01:55:07.914Z,77.57
2022-08-26T01:56:07.123Z,77.65
2022-08-26T01:57:07.256Z,77.76
2022-08-26T01:58:07.294Z,77.80
2022-08-26T01:59:07.423Z,77.89
2022-08-26T02:00:07.533Z,77.88
2022-08-26T02:01:07.704Z,77.60
2022-08-26T02:02:07.922Z,77.57
2022-08-26T02:03:08.124Z,77.46
2022-08-26T02:04:08.093Z,77.51
2022-08-26T02:05:08.204Z,77.66
2022-08-26T02:06:09.190Z,77.73
2022-08-26T02:07:08.530Z,77.90
2022-08-26T02:08:08.601Z,77.75
2022-08-26T02:09:08.820Z,77.60
2022-08-26T02:10:08.875Z,77.54
2022-08-26T02:11:08.994Z,77.72
2022-08-26T02:12:09.152Z,77.74
2022-08-26T02:13:09.262Z,77.92
2022-08-26T02:14:09.521Z,78.08
2022-08-26T02:15:09.521Z,78.07
2022-08-26T02:16:09.659Z,78.09
2022-08-26T02:17:09.761Z,78.04
2022-08-26T02:18:09.901Z,77.98
2022-08-26T02:19:10.093Z,77.88
2022-08-26T02:20:13.442Z,77.77
2022-08-26T02:21:10.290Z,77.73
2022-08-26T02:22:10.420Z,77.70
2022-08-26T02:23:10.735Z,77.72
2022-08-26T02:24:10.699Z,77.68
2022-08-26T02:25:10.830Z,77.61
2022-08-26T02:26:10.949Z,77.53
2022-08-26T02:27:11.069Z,77.39
2022-08-26T02:28:11.330Z,77.30
2022-08-26T02:29:11.349Z,77.34
2022-08-26T02:30:11.438Z,77.60
2022-08-26T02:31:11.593Z,77.79
2022-08-26T02:32:11.708Z,77.85
2022-08-26T02:33:12.010Z,78.05
2022-08-26T02:34:11.977Z,78.08
2022-08-26T02:35:12.107Z,77.99
2022-08-26T02:36:13.402Z,77.83
2022-08-26T02:37:12.358Z,77.76
2022-08-26T02:38:12.526Z,77.72
2022-08-26T02:39:15.017Z,77.66
2022-08-26T02:40:12.818Z,77.69
2022-08-26T02:41:12.897Z,77.55
2022-08-26T02:42:13.068Z,77.79
2022-08-26T02:43:13.217Z,78.02
2022-08-26T02:44:13.290Z,78.10
2022-08-26T02:45:13.415Z,78.14
2022-08-26T02:46:21.452Z,78.10
2022-08-26T02:47:14.806Z,78.05
2022-08-26T02:48:13.940Z,77.92
2022-08-26T02:49:13.918Z,78.06
2022-08-26T02:50:14.057Z,78.33
2022-08-26T02:51:14.186Z,78.31
2022-08-26T02:52:14.307Z,78.20
2022-08-26T02:53:14.597Z,78.13
2022-08-26T02:54:14.574Z,78.12
2022-08-26T02:55:14.717Z,78.18
2022-08-26T02:56:14.856Z,78.26
2022-08-26T02:57:14.986Z,78.38
2022-08-26T02:58:15.276Z,78.60
2022-08-26T02:59:15.382Z,78.76
2022-08-26T03:00:15.375Z,78.77
2022-08-26T03:01:15.560Z,78.69
2022-08-26T03:02:15.716Z,78.69
2022-08-26T03:03:15.863Z,78.61
2022-08-26T03:04:15.893Z,78.55
2022-08-26T03:05:16.043Z,78.49
2022-08-26T03:06:16.163Z,78.45
2022-08-26T03:07:16.307Z,78.46
2022-08-26T03:08:16.515Z,78.52
2022-08-26T03:09:18.905Z,78.50
2022-08-26T03:10:16.695Z,78.60
2022-08-26T03:11:16.832Z,78.64
2022-08-26T03:12:16.983Z,78.62
2022-08-26T03:13:17.236Z,78.62
2022-08-26T03:14:17.462Z,78.64
2022-08-26T03:15:18.367Z,78.65
2022-08-26T03:16:17.509Z,78.72
2022-08-26T03:17:17.603Z,78.80
2022-08-26T03:18:17.783Z,78.77
2022-08-26T03:19:17.993Z,78.83
2022-08-26T03:20:18.013Z,78.87
2022-08-26T03:21:18.103Z,78.85
2022-08-26T03:22:18.242Z,78.78
2022-08-26T03:23:18.601Z,78.89
2022-08-26T03:24:18.512Z,78.92
2022-08-26T03:25:18.610Z,78.88
2022-08-26T03:26:18.739Z,78.79
2022-08-26T03:27:18.869Z,78.62
2022-08-26T03:28:19.294Z,78.49
2022-08-26T03:29:19.174Z,78.44
2022-08-26T03:30:19.263Z,78.49
2022-08-26T03:31:19.445Z,78.56
2022-08-26T03:32:20.550Z,78.73
2022-08-26T03:33:19.660Z,78.72
2022-08-26T03:34:19.861Z,78.73
2022-08-26T03:35:19.956Z,78.75
2022-08-26T03:36:20.052Z,78.70
2022-08-26T03:37:20.197Z,78.62
2022-08-26T03:38:20.312Z,78.60
2022-08-26T03:39:20.469Z,78.63
2022-08-26T03:40:20.865Z,78.77
2022-08-26T03:41:20.709Z,78.80
2022-08-26T03:42:21.466Z,78.78
2022-08-26T03:43:20.969Z,78.72
2022-08-26T03:44:21.192Z,78.74
2022-08-26T03:45:21.261Z,78.59
2022-08-26T03:46:21.398Z,78.45
2022-08-26T03:47:21.487Z,78.59
2022-08-26T03:48:21.580Z,78.66
2022-08-26T03:49:21.818Z,78.60
2022-08-26T03:50:22.690Z,78.63
2022-08-26T03:51:21.968Z,78.69
2022-08-26T03:52:22.168Z,78.89
2022-08-26T03:53:22.208Z,78.85
2022-08-26T03:54:22.377Z,78.77
2022-08-26T03:55:23.775Z,78.81
2022-08-26T03:56:22.587Z,78.85
2022-08-26T03:57:22.735Z,78.77
2022-08-26T03:58:22.857Z,78.82
2022-08-26T03:59:23.067Z,78.78
2022-08-26T04:00:23.137Z,78.89
2022-08-26T04:01:23.272Z,78.99
2022-08-26T04:02:23.396Z,79.04
2022-08-26T04:03:23.589Z,78.97
2022-08-26T04:04:24.470Z,78.97
2022-08-26T04:05:23.923Z,78.76
2022-08-26T04:06:23.886Z,78.76
2022-08-26T04:07:24.008Z,78.79
2022-08-26T04:08:24.166Z,78.83
2022-08-26T04:09:24.464Z,78.93
2022-08-26T04:10:29.208Z,78.92
2022-08-26T04:11:25.525Z,79.06
2022-08-26T04:12:24.711Z,79.06
2022-08-26T04:13:24.794Z,79.09
2022-08-26T04:14:24.984Z,79.11
2022-08-26T04:15:25.133Z,79.15
2022-08-26T04:16:25.286Z,79.07
2022-08-26T04:17:25.336Z,79.16
2022-08-26T04:18:25.495Z,79.13
2022-08-26T04:19:26.852Z,79.16
2022-08-26T04:20:25.753Z,78.96
2022-08-26T04:21:25.853Z,78.86
2022-08-26T04:22:25.966Z,78.80
2022-08-26T04:23:26.107Z,78.68
2022-08-26T04:24:26.243Z,78.69
2022-08-26T04:25:26.503Z,78.81
2022-08-26T04:26:26.516Z,78.76
2022-08-26T04:27:26.629Z,78.73
2022-08-26T04:28:26.751Z,78.69
2022-08-26T04:29:26.865Z,78.73
2022-08-26T04:30:27.160Z,78.70
2022-08-26T04:31:27.184Z,78.79
2022-08-26T04:32:27.303Z,78.83
2022-08-26T04:33:32.256Z,78.83
2022-08-26T04:34:28.960Z,78.75
2022-08-26T04:35:27.850Z,78.69
2022-08-26T04:36:27.751Z,78.58
2022-08-26T04:37:27.912Z,78.73
2022-08-26T04:38:28.061Z,78.78
2022-08-26T04:39:28.095Z,78.77
2022-08-26T04:40:28.266Z,78.82
2022-08-26T04:41:28.332Z,78.78
2022-08-26T04:42:28.480Z,78.67
2022-08-26T04:43:28.789Z,78.62
2022-08-26T04:44:28.706Z,78.61
2022-08-26T04:45:28.839Z,78.48
2022-08-26T04:46:29.104Z,78.11
2022-08-26T04:47:32.215Z,78.17
2022-08-26T04:48:29.251Z,78.12
2022-08-26T04:49:29.329Z,78.01
2022-08-26T04:50:30.479Z,78.04
2022-08-26T04:51:29.601Z,78.13
2022-08-26T04:52:29.940Z,78.20
2022-08-26T04:53:29.879Z,78.16
2022-08-26T04:54:29.968Z,78.26
2022-08-26T04:55:38.715Z,78.28
2022-08-26T04:56:31.269Z,78.38
2022-08-26T04:57:30.530Z,78.52
2022-08-26T04:58:30.517Z,78.63
2022-08-26T04:59:30.659Z,78.80
2022-08-26T05:00:30.799Z,78.89
2022-08-26T05:01:30.974Z,78.99
2022-08-26T05:02:31.176Z,79.08
2022-08-26T05:03:31.338Z,79.10
2022-08-26T05:04:31.320Z,79.09
2022-08-26T05:05:31.457Z,78.99
2022-08-26T05:06:31.587Z,79.03
2022-08-26T05:07:32.747Z,79.08
2022-08-26T05:08:31.988Z,79.13
2022-08-26T05:09:32.008Z,79.09
2022-08-26T05:10:32.146Z,78.87
2022-08-26T05:11:32.287Z,78.81
2022-08-26T05:12:32.444Z,78.69
2022-08-26T05:13:32.738Z,78.68
2022-08-26T05:14:32.696Z,78.61
2022-08-26T05:15:32.796Z,78.58
2022-08-26T05:16:32.926Z,78.66
2022-08-26T05:17:33.087Z,78.48
2022-08-26T05:18:33.328Z,78.40
2022-08-26T05:19:33.449Z,78.49
2022-08-26T05:20:33.435Z,78.52
2022-08-26T05:21:33.535Z,78.44
2022-08-26T05:22:33.675Z,78.50
2022-08-26T05:23:33.936Z,78.58
2022-08-26T05:24:33.927Z,78.57
2022-08-26T05:25:34.079Z,78.38
2022-08-26T05:26:34.225Z,78.30
2022-08-26T05:27:34.345Z,78.29
2022-08-26T05:28:34.555Z,78.23
2022-08-26T05:29:34.625Z,78.29
2022-08-26T05:30:34.713Z,78.34
2022-08-26T05:31:34.905Z,78.40
2022-08-26T05:32:35.092Z,78.27
2022-08-26T05:33:35.159Z,78.19
2022-08-26T05:34:35.304Z,78.17
2022-08-26T05:35:35.364Z,78.28
2022-08-26T05:36:35.584Z,78.27
2022-08-26T05:37:35.644Z,78.36
2022-08-26T05:38:35.791Z,78.51
2022-08-26T05:39:36.124Z,78.51
2022-08-26T05:40:36.143Z,78.60
2022-08-26T05:41:38.470Z,78.70
2022-08-26T05:42:36.349Z,78.71
2022-08-26T05:43:36.453Z,78.83
2022-08-26T05:44:53.747Z,78.87
2022-08-26T05:45:39.439Z,78.93
2022-08-26T05:46:36.905Z,79.03
2022-08-26T05:47:36.973Z,79.02
2022-08-26T05:48:37.125Z,79.07
2022-08-26T05:49:37.402Z,79.20
2022-08-26T05:50:38.371Z,79.40
2022-08-26T05:51:37.521Z,79.35
2022-08-26T05:52:37.651Z,79.27
2022-08-26T05:53:37.742Z,79.24
2022-08-26T05:54:38.281Z,79.23
2022-08-26T05:55:38.021Z,79.17
2022-08-26T05:56:38.162Z,79.35
2022-08-26T05:57:42.839Z,79.41
2022-08-26T05:58:38.424Z,79.45
2022-08-26T05:59:38.572Z,79.39
2022-08-26T06:00:38.643Z,79.28
2022-08-26T06:01:38.823Z,79.36
2022-08-26T06:02:38.966Z,79.35
2022-08-26T06:03:39.043Z,79.38
2022-08-26T06:04:39.247Z,79.39
2022-08-26T06:05:39.488Z,79.42
2022-08-26T06:06:39.480Z,79.39
2022-08-26T06:07:39.590Z,79.38
2022-08-26T06:08:39.719Z,79.34
2022-08-26T06:09:39.930Z,79.35
2022-08-26T06:10:39.920Z,79.40
2022-08-26T06:11:40.067Z,79.42
2022-08-26T06:12:40.168Z,79.44
2022-08-26T06:13:40.300Z,79.44
2022-08-26T06:14:40.767Z,79.47
2022-08-26T06:15:42.032Z,79.58
2022-08-26T06:16:40.706Z,79.69
2022-08-26T06:17:40.858Z,79.73
2022-08-26T06:18:41.055Z,79.51
2022-08-26T06:19:41.345Z,79.51
2022-08-26T06:20:41.357Z,79.42
2022-08-26T06:21:41.332Z,79.42
2022-08-26T06:22:41.448Z,79.34
2022-08-26T06:23:41.569Z,79.19
2022-08-26T06:24:41.749Z,79.33
2022-08-26T06:25:41.827Z,79.38
2022-08-26T06:26:42.816Z,79.42
2022-08-26T06:27:42.197Z,79.49
2022-08-26T06:28:43.600Z,79.44
2022-08-26T06:29:42.316Z,79.47
2022-08-26T06:30:42.536Z,79.30
2022-08-26T06:31:42.598Z,79.29
2022-08-26T06:32:42.786Z,79.14
2022-08-26T06:33:42.851Z,79.22
2022-08-26T06:34:42.945Z,79.20
2022-08-26T06:35:43.077Z,79.29
2022-08-26T06:36:43.894Z,79.08
2022-08-26T06:37:43.475Z,79.04
2022-08-26T06:38:43.475Z,79.02
2022-08-26T06:39:43.515Z,79.07
2022-08-26T06:40:43.683Z,79.15
2022-08-26T06:41:43.824Z,79.16
2022-08-26T06:42:44.095Z,79.01
2022-08-26T06:43:44.164Z,79.05
2022-08-26T06:44:44.757Z,79.05
2022-08-26T06:45:44.282Z,79.20
2022-08-26T06:46:44.506Z,79.22
2022-08-26T06:47:44.781Z,79.15
2022-08-26T06:48:44.603Z,79.25
2022-08-26T06:49:44.713Z,79.12
2022-08-26T06:50:44.854Z,79.24
2022-08-26T06:51:44.983Z,79.22
2022-08-26T06:52:45.322Z,79.21
2022-08-26T06:53:45.394Z,78.93
2022-08-26T06:54:45.382Z,78.97
2022-08-26T06:55:45.520Z,78.91
2022-08-26T06:56:45.672Z,78.79
2022-08-26T06:57:45.774Z,78.69
2022-08-26T06:58:46.012Z,78.81
2022-08-26T06:59:46.031Z,78.87
2022-08-26T07:00:47.460Z,78.89
2022-08-26T07:01:46.349Z,78.92
2022-08-26T07:02:46.381Z,78.92
2022-08-26T07:03:46.747Z,78.87
2022-08-26T07:04:47.723Z,79.01
2022-08-26T07:05:46.771Z,78.75
2022-08-26T07:06:46.880Z,78.60
2022-08-26T07:07:47.044Z,78.61
2022-08-26T07:08:47.260Z,78.59
2022-08-26T07:09:47.380Z,78.71
2022-08-26T07:10:48.448Z,78.74
2022-08-26T07:11:47.512Z,78.76
2022-08-26T07:12:47.650Z,78.79
2022-08-26T07:13:47.801Z,78.63
2022-08-26T07:14:48.158Z,78.43
2022-08-26T07:15:48.139Z,78.25
2022-08-26T07:16:49.129Z,78.25
2022-08-26T07:17:48.230Z,78.30
2022-08-26T07:18:48.539Z,78.40
2022-08-26T07:19:48.468Z,78.56
2022-08-26T07:20:48.579Z,78.50
2022-08-26T07:21:48.679Z,78.61
2022-08-26T07:22:48.849Z,78.54
2022-08-26T07:23:49.156Z,78.68
2022-08-26T07:24:49.077Z,78.51
2022-08-26T07:25:49.248Z,78.58
2022-08-26T07:26:49.349Z,78.11
2022-08-26T07:27:53.890Z,77.98
2022-08-26T07:28:50.647Z,78.10
2022-08-26T07:29:49.738Z,78.16
2022-08-26T07:30:49.907Z,78.05
2022-08-26T07:31:49.978Z,78.11
2022-08-26T07:32:50.118Z,78.26
2022-08-26T07:33:50.327Z,78.52
2022-08-26T07:34:50.499Z,78.49
2022-08-26T07:35:50.489Z,78.58
2022-08-26T07:36:50.607Z,78.33
2022-08-26T07:37:55.074Z,78.58
2022-08-26T07:38:51.969Z,78.45
2022-08-26T07:39:51.034Z,78.55
2022-08-26T07:40:51.078Z,78.49
2022-08-26T07:41:51.219Z,78.32
2022-08-26T07:42:51.349Z,78.28
2022-08-26T07:43:51.448Z,78.33
2022-08-26T07:44:52.246Z,78.44
2022-08-26T07:45:51.682Z,78.38
2022-08-26T07:46:53.166Z,78.34
2022-08-26T07:47:51.953Z,78.37
2022-08-26T07:48:52.056Z,78.43
2022-08-26T07:49:52.826Z,78.23
2022-08-26T07:50:52.295Z,78.19
2022-08-26T07:51:52.382Z,78.20
2022-08-26T07:52:52.545Z,78.09
2022-08-26T07:53:53.158Z,78.20
2022-08-26T07:54:52.836Z,78.55
2022-08-26T07:55:52.874Z,78.56
2022-08-26T07:56:53.023Z,78.51
2022-08-26T07:57:53.138Z,78.43
2022-08-26T07:58:53.345Z,78.17
2022-08-26T07:59:54.062Z,78.17
2022-08-26T08:00:53.533Z,78.22
2022-08-26T08:01:53.702Z,78.19
2022-08-26T08:02:53.761Z,78.05
2022-08-26T08:03:53.874Z,78.07
2022-08-26T08:04:54.074Z,77.81
2022-08-26T08:05:54.113Z,77.63
2022-08-26T08:06:54.272Z,77.77
2022-08-26T08:07:54.383Z,77.51
2022-08-26T08:08:55.483Z,77.58
2022-08-26T08:09:54.848Z,77.45
2022-08-26T08:10:54.778Z,77.35
2022-08-26T08:11:54.864Z,77.13
2022-08-26T08:12:55.022Z,76.99
2022-08-26T08:13:56.425Z,77.05
2022-08-26T08:14:55.272Z,77.17
2022-08-26T08:15:55.409Z,76.92
2022-08-26T08:16:55.560Z,76.84
2022-08-26T08:17:58.854Z,76.85
2022-08-26T08:18:55.801Z,77.02
2022-08-26T08:19:55.932Z,76.89
2022-08-26T08:21:10.886Z,76.80
2022-08-26T08:21:57.190Z,76.70
2022-08-26T08:22:56.220Z,76.42
2022-08-26T08:23:56.334Z,76.63
2022-08-26T08:24:56.472Z,76.69
2022-08-26T08:25:56.590Z,76.80
2022-08-26T08:26:56.680Z,77.05
2022-08-26T08:27:57.032Z,77.02
2022-08-26T08:28:56.950Z,76.99
2022-08-26T08:29:57.043Z,77.15
2022-08-26T08:30:57.260Z,77.10
2022-08-26T08:31:58.115Z,76.91
2022-08-26T08:32:57.597Z,76.93
2022-08-26T08:33:57.558Z,76.80
2022-08-26T08:34:57.743Z,76.67
2022-08-26T08:35:57.834Z,76.74
2022-08-26T08:36:57.999Z,76.44
2022-08-26T08:37:58.210Z,76.40
2022-08-26T08:38:58.278Z,76.45
2022-08-26T08:39:58.340Z,76.44
2022-08-26T08:40:58.440Z,76.69
2022-08-26T08:41:58.649Z,76.23
2022-08-26T08:42:58.832Z,76.01
2022-08-26T08:43:58.818Z,76.27
2022-08-26T08:44:58.919Z,75.94
2022-08-26T08:45:59.867Z,75.83
2022-08-26T08:46:59.229Z,75.91
2022-08-26T08:47:59.497Z,75.77
2022-08-26T08:48:59.527Z,75.83
2022-08-26T08:49:59.636Z,75.49
2022-08-26T08:50:59.765Z,75.75
2022-08-26T08:51:59.897Z,75.64
2022-08-26T08:53:00.196Z,75.46
2022-08-26T08:54:00.146Z,75.46
2022-08-26T08:55:00.298Z,75.88
2022-08-26T08:56:00.459Z,75.97
2022-08-26T08:57:00.602Z,76.15
2022-08-26T08:58:02.432Z,76.25
2022-08-26T08:59:00.906Z,76.02
2022-08-26T09:00:00.967Z,75.99
2022-08-26T09:01:01.092Z,75.88
2022-08-26T09:02:01.255Z,76.13
2022-08-26T09:03:01.476Z,76.49
2022-08-26T09:04:01.475Z,76.36
2022-08-26T09:05:01.541Z,76.57
2022-08-26T09:06:01.642Z,76.57
2022-08-26T09:07:01.801Z,76.57
2022-08-26T09:08:01.987Z,76.58
2022-08-26T09:09:02.095Z,76.43
2022-08-26T09:10:02.224Z,76.31
2022-08-26T09:11:02.275Z,76.35
2022-08-26T09:12:02.374Z,76.35
2022-08-26T09:13:02.670Z,76.50
2022-08-26T09:14:02.614Z,76.40
2022-08-26T09:15:02.775Z,76.43
2022-08-26T09:16:02.864Z,76.50
2022-08-26T09:17:02.988Z,76.53
2022-08-26T09:18:05.760Z,76.38
2022-08-26T09:19:03.362Z,76.34
2022-08-26T09:20:03.364Z,76.38
2022-08-26T09:21:03.533Z,76.34
2022-08-26T09:22:08.770Z,76.11
2022-08-26T09:23:04.882Z,76.24
2022-08-26T09:24:04.102Z,76.20
2022-08-26T09:25:03.994Z,76.27
2022-08-26T09:26:04.107Z,76.39
2022-08-26T09:27:04.263Z,76.31
2022-08-26T09:28:04.453Z,76.33
2022-08-26T09:29:04.634Z,76.32
2022-08-26T09:30:04.640Z,76.52
2022-08-26T09:31:07.937Z,76.39
2022-08-26T09:32:05.883Z,76.22
2022-08-26T09:33:10.060Z,76.16
2022-08-26T09:34:06.242Z,76.16
2022-08-26T09:35:06.149Z,76.22
2022-08-26T09:36:05.341Z,75.84
2022-08-26T09:37:05.451Z,76.07
2022-08-26T09:38:07.022Z,76.41
2022-08-26T09:39:05.782Z,76.88
2022-08-26T09:40:05.839Z,76.71
2022-08-26T09:41:05.862Z,76.45
2022-08-26T09:42:06.012Z,76.31
2022-08-26T09:43:06.150Z,76.20
2022-08-26T09:44:06.332Z,76.07
2022-08-26T09:45:06.388Z,76.11
2022-08-26T09:46:06.690Z,76.32
2022-08-26T09:47:06.600Z,76.41
2022-08-26T09:48:06.757Z,76.42
2022-08-26T09:49:06.849Z,76.33
2022-08-26T09:50:09.942Z,76.50
2022-08-26T09:51:08.129Z,76.51
2022-08-26T09:52:07.219Z,76.53
2022-08-26T09:53:09.815Z,76.51
2022-08-26T09:54:08.469Z,76.85
2022-08-26T09:55:07.580Z,76.63
2022-08-26T09:56:07.798Z,76.34
2022-08-26T09:57:07.860Z,76.39
2022-08-26T09:58:08.915Z,76.05
2022-08-26T09:59:08.169Z,75.96
2022-08-26T10:00:08.229Z,76.16
2022-08-26T10:01:08.545Z,76.01
2022-08-26T10:02:12.226Z,76.01
2022-08-26T10:03:08.829Z,75.77
2022-08-26T10:04:08.812Z,76.05
2022-08-26T10:05:09.609Z,75.79
2022-08-26T10:06:09.073Z,75.80
2022-08-26T10:07:09.178Z,75.64
2022-08-26T10:08:09.307Z,75.95
2022-08-26T10:09:10.831Z,75.40
2022-08-26T10:10:09.561Z,74.94
2022-08-26T10:11:09.669Z,74.95
2022-08-26T10:12:09.979Z,74.79
2022-08-26T10:13:10.172Z,74.90
2022-08-26T10:14:09.997Z,74.16
2022-08-26T10:15:10.157Z,74.08
2022-08-26T10:16:10.774Z,74.59
2022-08-26T10:17:10.436Z,74.49
2022-08-26T10:18:10.719Z,74.41
2022-08-26T10:19:10.696Z,74.49
2022-08-26T10:20:23.269Z,74.12
2022-08-26T10:21:11.836Z,74.58
2022-08-26T10:22:10.997Z,74.56
2022-08-26T10:23:11.345Z,74.76
2022-08-26T10:24:11.499Z,74.47
2022-08-26T10:25:11.356Z,74.39
2022-08-26T10:26:11.466Z,74.27
2022-08-26T10:27:11.599Z,74.11
2022-08-26T10:28:11.881Z,74.19
2022-08-26T10:29:11.856Z,74.18
2022-08-26T10:30:11.925Z,74.21
2022-08-26T10:31:12.066Z,73.76
2022-08-26T10:32:13.726Z,73.91
2022-08-26T10:33:13.116Z,73.67
2022-08-26T10:34:13.989Z,74.23
2022-08-26T10:35:12.574Z,73.80
2022-08-26T10:36:15.323Z,73.74
2022-08-26T10:37:16.255Z,73.61
2022-08-26T10:38:12.918Z,73.53
2022-08-26T10:39:13.195Z,73.40
2022-08-26T10:40:13.259Z,73.44
2022-08-26T10:41:13.296Z,73.76
2022-08-26T10:42:13.416Z,73.79
2022-08-26T10:43:13.514Z,73.50
2022-08-26T10:44:13.674Z,73.31
2022-08-26T10:45:15.187Z,73.98
2022-08-26T10:46:13.896Z,74.04
2022-08-26T10:47:14.012Z,74.00
2022-08-26T10:48:14.173Z,73.99
2022-08-26T10:49:14.287Z,74.10
2022-08-26T10:50:14.531Z,74.21
2022-08-26T10:51:14.513Z,74.17
2022-08-26T10:52:16.440Z,74.17
2022-08-26T10:53:14.785Z,74.35
2022-08-26T10:54:14.893Z,74.34
2022-08-26T10:55:15.103Z,74.38
2022-08-26T10:56:15.901Z,74.39
2022-08-26T10:57:15.202Z,74.69
2022-08-26T10:58:26.536Z,74.55
2022-08-26T10:59:16.571Z,74.58
2022-08-26T11:00:15.562Z,74.63
2022-08-26T11:01:15.737Z,74.67
2022-08-26T11:02:15.829Z,74.55
2022-08-26T11:03:22.012Z,74.64
2022-08-26T11:04:17.179Z,74.77
2022-08-26T11:05:16.141Z,74.78
2022-08-26T11:06:16.282Z,74.65
2022-08-26T11:07:16.362Z,74.68
2022-08-26T11:08:17.281Z,75.13
2022-08-26T11:09:16.598Z,75.26
2022-08-26T11:10:16.740Z,75.12
2022-08-26T11:11:16.880Z,75.42
2022-08-26T11:12:16.998Z,75.52
2022-08-26T11:13:17.151Z,75.53
2022-08-26T11:14:17.459Z,75.89
2022-08-26T11:15:18.418Z,76.15
2022-08-26T11:16:17.556Z,75.86
2022-08-26T11:17:17.678Z,75.88
2022-08-26T11:18:17.899Z,75.61
2022-08-26T11:19:17.958Z,75.43
2022-08-26T11:20:19.035Z,75.38
2022-08-26T11:21:18.160Z,75.40
2022-08-26T11:22:19.300Z,75.09
2022-08-26T11:23:18.689Z,74.83
2022-08-26T11:24:18.569Z,74.69
2022-08-26T11:25:18.709Z,74.80
2022-08-26T11:26:32.795Z,74.78
2022-08-26T11:27:19.947Z,75.12
2022-08-26T11:28:19.256Z,75.02
2022-08-26T11:29:19.278Z,74.73
2022-08-26T11:30:19.347Z,74.58
2022-08-26T11:31:19.479Z,74.38
2022-08-26T11:32:19.528Z,74.33
2022-08-26T11:33:19.988Z,74.49
2022-08-26T11:34:19.808Z,74.55
2022-08-26T11:35:19.931Z,74.39
2022-08-26T11:36:20.068Z,74.23
2022-08-26T11:38:20.585Z,74.50
2022-08-26T11:39:20.487Z,74.30
2022-08-26T11:40:20.725Z,74.14
2022-08-26T11:41:20.976Z,74.03
2022-08-26T11:42:20.855Z,73.76
2022-08-26T11:43:21.097Z,73.90
2022-08-26T11:44:21.280Z,73.54
2022-08-26T11:45:21.306Z,73.51
2022-08-26T11:46:21.370Z,73.82
2022-08-26T11:47:21.559Z,73.85
2022-08-26T11:48:21.686Z,73.73
2022-08-26T11:49:21.760Z,73.74
2022-08-26T11:50:21.905Z,73.76
2022-08-26T11:51:22.149Z,73.50
2022-08-26T11:52:22.151Z,73.35
2022-08-26T11:53:22.257Z,73.67
2022-08-26T11:54:35.064Z,73.21
2022-08-26T11:55:24.090Z,73.44
2022-08-26T11:56:22.696Z,73.44
2022-08-26T11:57:22.771Z,73.15
2022-08-26T11:58:22.884Z,72.99
2022-08-26T11:59:23.016Z,72.83
2022-08-26T12:00:23.557Z,72.72
2022-08-26T12:01:23.410Z,72.76
2022-08-26T12:02:23.394Z,72.74
2022-08-26T12:03:23.607Z,72.83
2022-08-26T12:04:23.662Z,72.62
2022-08-26T12:05:23.765Z,72.72
2022-08-26T12:06:24.052Z,72.88
2022-08-26T12:07:24.447Z,72.69
2022-08-26T12:08:24.141Z,72.63
2022-08-26T12:09:24.218Z,72.90
2022-08-26T12:10:24.326Z,72.78
2022-08-26T12:11:25.515Z,72.42
2022-08-26T12:12:24.563Z,72.20
2022-08-26T12:13:25.089Z,72.30
2022-08-26T12:14:24.813Z,72.72
2022-08-26T12:15:24.961Z,72.41
2022-08-26T12:16:25.133Z,72.36
2022-08-26T12:17:25.302Z,72.30
2022-08-26T12:18:29.590Z,72.43
2022-08-26T12:19:25.482Z,72.20
2022-08-26T12:20:25.592Z,71.75
2022-08-26T12:21:25.703Z,71.68
2022-08-26T12:22:25.852Z,71.80
2022-08-26T12:23:25.960Z,71.93
2022-08-26T12:24:26.246Z,71.72
2022-08-26T12:25:26.189Z,71.51
2022-08-26T12:26:26.280Z,71.20
2022-08-26T12:27:26.401Z,71.28
2022-08-26T12:28:26.501Z,70.86
2022-08-26T12:29:27.362Z,71.06
2022-08-26T12:30:26.693Z,71.08
2022-08-26T12:31:26.856Z,71.26
2022-08-26T12:32:27.052Z,71.06
2022-08-26T12:33:27.253Z,71.35
2022-08-26T12:34:27.251Z,71.26
2022-08-26T12:35:27.351Z,71.31
2022-08-26T12:36:27.452Z,71.27
2022-08-26T12:37:27.731Z,71.41
2022-08-26T12:38:27.738Z,71.38
2022-08-26T12:39:27.830Z,71.52
2022-08-26T12:40:28.036Z,71.44
2022-08-26T12:41:28.110Z,71.37
2022-08-26T12:42:28.349Z,71.35
2022-08-26T12:43:28.479Z,71.62
2022-08-26T12:44:28.451Z,71.87
2022-08-26T12:45:28.636Z,71.81
2022-08-26T12:46:28.732Z,72.23
2022-08-26T12:47:35.122Z,72.98
2022-08-26T12:48:30.122Z,74.04
2022-08-26T12:49:29.062Z,74.63
2022-08-26T12:50:29.174Z,74.48
2022-08-26T12:51:29.278Z,74.81
2022-08-26T12:52:29.462Z,74.90
2022-08-26T12:53:29.496Z,75.06
2022-08-26T12:54:29.797Z,74.66
2022-08-26T12:55:29.798Z,75.14